X  Close Metar Aviation Weather Data     KSWO Stillwater Regional Airport
Temperature
25°F Temperature
9°F Dewpoint
50% Humidity



Wind
0 MPH
0 KM/H
0 M/S
0 KTS



Calm
N
Current Conditions

Clear Clear
Pressure 1030.52 (hPa) - 30.43 (inHg)
Visibility 10 (mile) - 16.1 (km)
Airport
Airport-code KSWO

Location: Stillwater Regional Airport
Distance: 4 (mi)

Metar:
KSWO 220753Z AUTO 00000KT 10SM CLR M04/M13 A3043 RMK AO2 SLP312 T10391128

Time: 01-22-2022 1:53 am CST